sensor_id;sensor_type;location;lat;lon;timestamp;temperature;humidity
16247;DHT22;8231;50.866;7.944;2024-01-10T00:01:08;-5.60;87.80
16247;DHT22;8231;50.866;7.944;2024-01-10T00:03:36;-5.60;90.10
16247;DHT22;8231;50.866;7.944;2024-01-10T00:06:04;-5.90;90.00
16247;DHT22;8231;50.866;7.944;2024-01-10T00:08:33;-6.00;90.40
16247;DHT22;8231;50.866;7.944;2024-01-10T00:11:01;-6.20;91.80
16247;DHT22;8231;50.866;7.944;2024-01-10T00:13:32;-6.20;92.40
16247;DHT22;8231;50.866;7.944;2024-01-10T00:16:00;-6.40;93.00
16247;DHT22;8231;50.866;7.944;2024-01-10T00:18:28;-6.30;94.00
16247;DHT22;8231;50.866;7.944;2024-01-10T00:20:57;-6.60;94.60
16247;DHT22;8231;50.866;7.944;2024-01-10T00:23:25;-6.60;95.20
16247;DHT22;8231;50.866;7.944;2024-01-10T00:25:54;-6.70;96.70
16247;DHT22;8231;50.866;7.944;2024-01-10T00:28:22;-6.70;97.40
16247;DHT22;8231;50.866;7.944;2024-01-10T00:30:51;-6.80;97.60
16247;DHT22;8231;50.866;7.944;2024-01-10T00:33:20;-6.80;98.30
16247;DHT22;8231;50.866;7.944;2024-01-10T00:35:48;-6.90;98.90
16247;DHT22;8231;50.866;7.944;2024-01-10T00:38:16;-6.90;99.40
16247;DHT22;8231;50.866;7.944;2024-01-10T00:40:45;-6.90;99.10
16247;DHT22;8231;50.866;7.944;2024-01-10T00:43:13;-6.90;99.10
16247;DHT22;8231;50.866;7.944;2024-01-10T00:45:41;-6.90;99.60
16247;DHT22;8231;50.866;7.944;2024-01-10T00:48:11;-6.70;98.40
16247;DHT22;8231;50.866;7.944;2024-01-10T00:50:39;-6.90;97.40
16247;DHT22;8231;50.866;7.944;2024-01-10T00:53:08;-6.70;96.30
16247;DHT22;8231;50.866;7.944;2024-01-10T00:55:36;-6.60;95.10
16247;DHT22;8231;50.866;7.944;2024-01-10T00:58:04;-5.70;94.80
16247;DHT22;8231;50.866;7.944;2024-01-10T01:00:32;-6.40;93.50
16247;DHT22;8231;50.866;7.944;2024-01-10T01:03:01;-6.20;93.20
16247;DHT22;8231;50.866;7.944;2024-01-10T01:05:30;-6.10;92.80
16247;DHT22;8231;50.866;7.944;2024-01-10T01:07:59;-6.10;92.80
16247;DHT22;8231;50.866;7.944;2024-01-10T01:10:27;-6.00;92.70
16247;DHT22;8231;50.866;7.944;2024-01-10T01:12:55;-6.00;92.10
16247;DHT22;8231;50.866;7.944;2024-01-10T01:15:24;-6.00;92.80
16247;DHT22;8231;50.866;7.944;2024-01-10T01:17:52;-6.00;92.60
16247;DHT22;8231;50.866;7.944;2024-01-10T01:20:20;-6.00;92.70
16247;DHT22;8231;50.866;7.944;2024-01-10T01:22:50;-6.00;93.50
16247;DHT22;8231;50.866;7.944;2024-01-10T01:25:18;-6.10;93.90
16247;DHT22;8231;50.866;7.944;2024-01-10T01:27:46;-6.10;94.30
16247;DHT22;8231;50.866;7.944;2024-01-10T01:30:15;-6.20;94.70
16247;DHT22;8231;50.866;7.944;2024-01-10T01:32:43;-6.30;95.60
16247;DHT22;8231;50.866;7.944;2024-01-10T01:35:11;-6.30;97.10
16247;DHT22;8231;50.866;7.944;2024-01-10T01:37:39;-6.40;97.10
16247;DHT22;8231;50.866;7.944;2024-01-10T01:40:09;-6.50;97.50
16247;DHT22;8231;50.866;7.944;2024-01-10T01:42:37;-6.60;97.50
16247;DHT22;8231;50.866;7.944;2024-01-10T01:45:06;-6.70;99.10
16247;DHT22;8231;50.866;7.944;2024-01-10T01:47:35;-6.80;99.80
16247;DHT22;8231;50.866;7.944;2024-01-10T01:50:04;-6.80;99.90
16247;DHT22;8231;50.866;7.944;2024-01-10T01:52:32;-6.90;99.90
16247;DHT22;8231;50.866;7.944;2024-01-10T01:55:01;-7.00;99.90
16247;DHT22;8231;50.866;7.944;2024-01-10T01:57:31;-7.10;99.90
16247;DHT22;8231;50.866;7.944;2024-01-10T01:59:59;-7.10;99.90
16247;DHT22;8231;50.866;7.944;2024-01-10T02:02:31;-7.20;99.90
16247;DHT22;8231;50.866;7.944;2024-01-10T02:05:00;-7.30;99.90
16247;DHT22;8231;50.866;7.944;2024-01-10T02:07:28;-7.30;99.90
16247;DHT22;8231;50.866;7.944;2024-01-10T02:09:57;-7.30;99.90
16247;DHT22;8231;50.866;7.944;2024-01-10T02:12:25;-7.30;99.90
16247;DHT22;8231;50.866;7.944;2024-01-10T02:14:54;-7.30;99.90
16247;DHT22;8231;50.866;7.944;2024-01-10T02:17:23;-7.30;99.90
16247;DHT22;8231;50.866;7.944;2024-01-10T02:20:09;-7.40;99.90
16247;DHT22;8231;50.866;7.944;2024-01-10T02:22:38;-7.40;99.90
16247;DHT22;8231;50.866;7.944;2024-01-10T02:25:09;-7.50;99.90
16247;DHT22;8231;50.866;7.944;2024-01-10T02:27:38;-7.50;99.90
16247;DHT22;8231;50.866;7.944;2024-01-10T02:30:08;-7.50;99.90
16247;DHT22;8231;50.866;7.944;2024-01-10T02:32:37;-7.50;99.90
16247;DHT22;8231;50.866;7.944;2024-01-10T02:35:06;-7.50;99.90
16247;DHT22;8231;50.866;7.944;2024-01-10T02:37:35;-7.50;99.90
16247;DHT22;8231;50.866;7.944;2024-01-10T02:40:03;-7.60;99.90
16247;DHT22;8231;50.866;7.944;2024-01-10T02:42:35;-7.60;99.90
16247;DHT22;8231;50.866;7.944;2024-01-10T02:45:03;-7.60;99.90
16247;DHT22;8231;50.866;7.944;2024-01-10T02:47:32;-7.60;99.90
16247;DHT22;8231;50.866;7.944;2024-01-10T02:50:00;-7.70;99.90
16247;DHT22;8231;50.866;7.944;2024-01-10T02:52:28;-7.80;99.90
16247;DHT22;8231;50.866;7.944;2024-01-10T02:54:56;-7.80;99.90
16247;DHT22;8231;50.866;7.944;2024-01-10T02:57:25;-7.80;99.90
16247;DHT22;8231;50.866;7.944;2024-01-10T02:59:54;-7.80;99.90
16247;DHT22;8231;50.866;7.944;2024-01-10T03:02:22;-7.80;99.90
16247;DHT22;8231;50.866;7.944;2024-01-10T03:04:51;-7.80;99.90
16247;DHT22;8231;50.866;7.944;2024-01-10T03:07:19;-7.90;99.90
16247;DHT22;8231;50.866;7.944;2024-01-10T03:09:48;-7.90;99.90
16247;DHT22;8231;50.866;7.944;2024-01-10T03:12:16;-7.90;99.90
16247;DHT22;8231;50.866;7.944;2024-01-10T03:14:44;-7.90;99.90
16247;DHT22;8231;50.866;7.944;2024-01-10T03:17:13;-8.00;99.90
16247;DHT22;8231;50.866;7.944;2024-01-10T03:19:42;-8.00;99.90
16247;DHT22;8231;50.866;7.944;2024-01-10T03:22:11;-7.90;99.90
16247;DHT22;8231;50.866;7.944;2024-01-10T03:24:38;-8.00;99.90
16247;DHT22;8231;50.866;7.944;2024-01-10T03:27:07;-8.00;99.90
16247;DHT22;8231;50.866;7.944;2024-01-10T03:29:35;-8.00;99.90
16247;DHT22;8231;50.866;7.944;2024-01-10T03:32:04;-8.10;99.90
16247;DHT22;8231;50.866;7.944;2024-01-10T03:34:33;-7.80;99.90
16247;DHT22;8231;50.866;7.944;2024-01-10T03:37:02;-8.00;99.90
16247;DHT22;8231;50.866;7.944;2024-01-10T03:39:30;-8.20;99.90
16247;DHT22;8231;50.866;7.944;2024-01-10T03:41:58;-8.20;99.90
16247;DHT22;8231;50.866;7.944;2024-01-10T03:44:27;-8.20;99.90
16247;DHT22;8231;50.866;7.944;2024-01-10T03:46:55;-8.30;99.90
16247;DHT22;8231;50.866;7.944;2024-01-10T03:49:23;-8.30;99.90
16247;DHT22;8231;50.866;7.944;2024-01-10T03:51:53;-8.30;99.90
16247;DHT22;8231;50.866;7.944;2024-01-10T03:54:21;-8.30;99.90
16247;DHT22;8231;50.866;7.944;2024-01-10T03:56:49;-8.30;99.90
16247;DHT22;8231;50.866;7.944;2024-01-10T03:59:17;-8.30;99.90
16247;DHT22;8231;50.866;7.944;2024-01-10T04:01:45;-8.40;99.90
16247;DHT22;8231;50.866;7.944;2024-01-10T04:04:13;-8.30;99.90
16247;DHT22;8231;50.866;7.944;2024-01-10T04:06:41;-8.30;99.90
16247;DHT22;8231;50.866;7.944;2024-01-10T04:09:11;-8.40;99.90
16247;DHT22;8231;50.866;7.944;2024-01-10T04:11:39;-8.20;99.90
16247;DHT22;8231;50.866;7.944;2024-01-10T04:14:07;-8.40;99.90
16247;DHT22;8231;50.866;7.944;2024-01-10T04:16:36;-8.40;99.90
16247;DHT22;8231;50.866;7.944;2024-01-10T04:19:04;-8.40;99.90
16247;DHT22;8231;50.866;7.944;2024-01-10T04:21:33;-8.50;99.90
16247;DHT22;8231;50.866;7.944;2024-01-10T04:24:02;-8.50;99.90
16247;DHT22;8231;50.866;7.944;2024-01-10T04:26:32;-8.50;99.90
16247;DHT22;8231;50.866;7.944;2024-01-10T04:29:00;-8.50;99.90
16247;DHT22;8231;50.866;7.944;2024-01-10T04:31:28;-8.50;99.90
16247;DHT22;8231;50.866;7.944;2024-01-10T04:33:57;-8.50;99.90
16247;DHT22;8231;50.866;7.944;2024-01-10T04:36:25;-8.50;99.90
16247;DHT22;8231;50.866;7.944;2024-01-10T04:38:53;-8.50;99.90
16247;DHT22;8231;50.866;7.944;2024-01-10T04:41:21;-8.60;99.90
16247;DHT22;8231;50.866;7.944;2024-01-10T04:43:51;-8.60;99.90
16247;DHT22;8231;50.866;7.944;2024-01-10T04:46:19;-8.50;99.90
16247;DHT22;8231;50.866;7.944;2024-01-10T04:48:47;-8.70;99.90
16247;DHT22;8231;50.866;7.944;2024-01-10T04:51:16;-8.60;99.90
16247;DHT22;8231;50.866;7.944;2024-01-10T04:53:44;-8.60;99.90
16247;DHT22;8231;50.866;7.944;2024-01-10T04:56:13;-8.40;99.90
16247;DHT22;8231;50.866;7.944;2024-01-10T04:58:41;-8.60;99.90
16247;DHT22;8231;50.866;7.944;2024-01-10T05:01:10;-8.40;99.90
16247;DHT22;8231;50.866;7.944;2024-01-10T05:03:38;-8.60;99.90
16247;DHT22;8231;50.866;7.944;2024-01-10T05:06:07;-8.70;99.90
16247;DHT22;8231;50.866;7.944;2024-01-10T05:08:35;-8.70;99.90
16247;DHT22;8231;50.866;7.944;2024-01-10T05:11:04;-8.50;99.90
16247;DHT22;8231;50.866;7.944;2024-01-10T05:13:32;-8.60;99.90
16247;DHT22;8231;50.866;7.944;2024-01-10T05:16:00;-8.80;99.90
16247;DHT22;8231;50.866;7.944;2024-01-10T05:18:30;-8.80;99.90
16247;DHT22;8231;50.866;7.944;2024-01-10T05:20:58;-8.20;99.90
16247;DHT22;8231;50.866;7.944;2024-01-10T05:23:27;-8.80;99.90
16247;DHT22;8231;50.866;7.944;2024-01-10T05:25:55;-8.70;99.90
16247;DHT22;8231;50.866;7.944;2024-01-10T05:28:23;-8.70;99.90
16247;DHT22;8231;50.866;7.944;2024-01-10T05:30:51;-8.70;99.90
16247;DHT22;8231;50.866;7.944;2024-01-10T05:33:20;-8.70;99.90
16247;DHT22;8231;50.866;7.944;2024-01-10T05:35:50;-8.60;99.90
16247;DHT22;8231;50.866;7.944;2024-01-10T05:38:18;-8.80;99.90
16247;DHT22;8231;50.866;7.944;2024-01-10T05:40:47;-8.80;99.90
16247;DHT22;8231;50.866;7.944;2024-01-10T05:43:15;-8.80;99.90
16247;DHT22;8231;50.866;7.944;2024-01-10T05:45:43;-8.70;99.90
16247;DHT22;8231;50.866;7.944;2024-01-10T05:48:11;-8.70;99.90
16247;DHT22;8231;50.866;7.944;2024-01-10T05:50:39;-8.90;99.90
16247;DHT22;8231;50.866;7.944;2024-01-10T05:53:09;-8.30;99.90
16247;DHT22;8231;50.866;7.944;2024-01-10T05:55:39;-8.90;99.90
16247;DHT22;8231;50.866;7.944;2024-01-10T05:58:08;-8.60;99.90
16247;DHT22;8231;50.866;7.944;2024-01-10T06:00:37;-9.00;99.90
16247;DHT22;8231;50.866;7.944;2024-01-10T06:03:05;-8.80;99.90
16247;DHT22;8231;50.866;7.944;2024-01-10T06:05:34;-8.90;99.90
16247;DHT22;8231;50.866;7.944;2024-01-10T06:08:03;-9.00;99.90
16247;DHT22;8231;50.866;7.944;2024-01-10T06:10:33;-9.00;99.90
16247;DHT22;8231;50.866;7.944;2024-01-10T06:13:04;-9.00;99.90
16247;DHT22;8231;50.866;7.944;2024-01-10T06:15:32;-9.00;99.90
16247;DHT22;8231;50.866;7.944;2024-01-10T06:18:00;-9.00;99.90
16247;DHT22;8231;50.866;7.944;2024-01-10T06:20:29;-9.00;99.90
16247;DHT22;8231;50.866;7.944;2024-01-10T06:22:58;-9.00;99.90
16247;DHT22;8231;50.866;7.944;2024-01-10T06:25:27;-8.80;99.90
16247;DHT22;8231;50.866;7.944;2024-01-10T06:27:57;-9.00;99.90
16247;DHT22;8231;50.866;7.944;2024-01-10T06:30:24;-9.00;99.90
16247;DHT22;8231;50.866;7.944;2024-01-10T06:32:52;-8.70;99.90
16247;DHT22;8231;50.866;7.944;2024-01-10T06:35:22;-8.90;99.90
16247;DHT22;8231;50.866;7.944;2024-01-10T06:37:50;-8.90;99.90
16247;DHT22;8231;50.866;7.944;2024-01-10T06:40:19;-8.70;99.90
16247;DHT22;8231;50.866;7.944;2024-01-10T06:42:48;-9.00;99.90
16247;DHT22;8231;50.866;7.944;2024-01-10T06:45:18;-9.00;99.90
16247;DHT22;8231;50.866;7.944;2024-01-10T06:47:47;-9.00;99.90
16247;DHT22;8231;50.866;7.944;2024-01-10T06:50:15;-9.00;99.90
16247;DHT22;8231;50.866;7.944;2024-01-10T06:52:43;-9.00;99.90
16247;DHT22;8231;50.866;7.944;2024-01-10T06:55:12;-8.90;99.90
16247;DHT22;8231;50.866;7.944;2024-01-10T06:57:40;-9.00;99.90
16247;DHT22;8231;50.866;7.944;2024-01-10T07:00:09;-8.80;99.90
16247;DHT22;8231;50.866;7.944;2024-01-10T07:02:39;-9.10;99.90
16247;DHT22;8231;50.866;7.944;2024-01-10T07:05:08;-9.10;99.90
16247;DHT22;8231;50.866;7.944;2024-01-10T07:07:36;-9.10;99.90
16247;DHT22;8231;50.866;7.944;2024-01-10T07:10:06;-9.10;99.90
16247;DHT22;8231;50.866;7.944;2024-01-10T07:12:34;-9.10;99.90
16247;DHT22;8231;50.866;7.944;2024-01-10T07:15:03;-9.10;99.90
16247;DHT22;8231;50.866;7.944;2024-01-10T07:17:31;-9.10;99.90
16247;DHT22;8231;50.866;7.944;2024-01-10T07:20:02;-9.10;99.90
16247;DHT22;8231;50.866;7.944;2024-01-10T07:22:32;-9.10;99.90
16247;DHT22;8231;50.866;7.944;2024-01-10T07:25:01;-9.10;99.90
16247;DHT22;8231;50.866;7.944;2024-01-10T07:27:32;-9.10;99.90
16247;DHT22;8231;50.866;7.944;2024-01-10T07:30:00;-9.10;99.90
16247;DHT22;8231;50.866;7.944;2024-01-10T07:32:28;-9.10;99.90
16247;DHT22;8231;50.866;7.944;2024-01-10T07:34:56;-9.00;99.90
16247;DHT22;8231;50.866;7.944;2024-01-10T07:37:26;-9.00;99.90
16247;DHT22;8231;50.866;7.944;2024-01-10T07:39:54;-9.00;99.90
16247;DHT22;8231;50.866;7.944;2024-01-10T07:42:24;-9.00;99.90
16247;DHT22;8231;50.866;7.944;2024-01-10T07:44:52;-8.90;99.90
16247;DHT22;8231;50.866;7.944;2024-01-10T07:47:20;-8.90;99.90
16247;DHT22;8231;50.866;7.944;2024-01-10T07:49:49;-8.90;99.90
16247;DHT22;8231;50.866;7.944;2024-01-10T07:52:17;-8.90;99.90
16247;DHT22;8231;50.866;7.944;2024-01-10T07:54:51;-8.80;99.90
16247;DHT22;8231;50.866;7.944;2024-01-10T07:57:19;-8.80;99.90
16247;DHT22;8231;50.866;7.944;2024-01-10T07:59:47;-8.70;99.90
16247;DHT22;8231;50.866;7.944;2024-01-10T08:02:15;-8.70;99.90
16247;DHT22;8231;50.866;7.944;2024-01-10T08:04:43;-8.60;99.90
16247;DHT22;8231;50.866;7.944;2024-01-10T08:07:11;-8.70;99.90
16247;DHT22;8231;50.866;7.944;2024-01-10T08:09:40;-8.50;99.90
16247;DHT22;8231;50.866;7.944;2024-01-10T08:12:09;-8.70;99.90
16247;DHT22;8231;50.866;7.944;2024-01-10T08:14:38;-8.60;99.90
16247;DHT22;8231;50.866;7.944;2024-01-10T08:17:07;-8.70;99.90
16247;DHT22;8231;50.866;7.944;2024-01-10T08:19:35;-8.70;99.90
16247;DHT22;8231;50.866;7.944;2024-01-10T08:22:20;-8.60;99.90
16247;DHT22;8231;50.866;7.944;2024-01-10T08:24:51;-8.60;99.90
16247;DHT22;8231;50.866;7.944;2024-01-10T08:27:19;-8.60;99.90
16247;DHT22;8231;50.866;7.944;2024-01-10T08:29:47;-8.60;99.90
16247;DHT22;8231;50.866;7.944;2024-01-10T08:32:15;-8.60;99.90
16247;DHT22;8231;50.866;7.944;2024-01-10T08:34:45;-8.50;99.90
16247;DHT22;8231;50.866;7.944;2024-01-10T08:37:13;-8.50;99.90
16247;DHT22;8231;50.866;7.944;2024-01-10T08:39:45;-8.50;99.90
16247;DHT22;8231;50.866;7.944;2024-01-10T08:42:13;-8.50;99.90
16247;DHT22;8231;50.866;7.944;2024-01-10T08:44:42;-8.40;99.90
16247;DHT22;8231;50.866;7.944;2024-01-10T08:47:10;-8.40;99.90
16247;DHT22;8231;50.866;7.944;2024-01-10T08:49:38;-8.40;99.90
16247;DHT22;8231;50.866;7.944;2024-01-10T08:52:06;-8.30;99.90
16247;DHT22;8231;50.866;7.944;2024-01-10T08:54:36;-8.10;99.90
16247;DHT22;8231;50.866;7.944;2024-01-10T08:57:05;-8.00;99.90
16247;DHT22;8231;50.866;7.944;2024-01-10T08:59:33;-8.30;99.90
16247;DHT22;8231;50.866;7.944;2024-01-10T09:02:02;-8.20;99.90
16247;DHT22;8231;50.866;7.944;2024-01-10T09:04:30;-8.10;99.90
16247;DHT22;8231;50.866;7.944;2024-01-10T09:07:01;-8.10;99.90
16247;DHT22;8231;50.866;7.944;2024-01-10T09:09:29;-8.00;99.90
16247;DHT22;8231;50.866;7.944;2024-01-10T09:11:58;-8.00;99.90
16247;DHT22;8231;50.866;7.944;2024-01-10T09:14:27;-7.90;99.90
16247;DHT22;8231;50.866;7.944;2024-01-10T09:16:55;-7.80;99.90
16247;DHT22;8231;50.866;7.944;2024-01-10T09:19:25;-7.90;99.90
16247;DHT22;8231;50.866;7.944;2024-01-10T09:21:54;-7.80;99.90
16247;DHT22;8231;50.866;7.944;2024-01-10T09:24:22;-7.80;99.90
16247;DHT22;8231;50.866;7.944;2024-01-10T09:26:56;-7.80;99.90
16247;DHT22;8231;50.866;7.944;2024-01-10T09:29:24;-7.70;99.90
16247;DHT22;8231;50.866;7.944;2024-01-10T09:31:55;-7.70;99.90
16247;DHT22;8231;50.866;7.944;2024-01-10T09:34:23;-7.60;99.90
16247;DHT22;8231;50.866;7.944;2024-01-10T09:36:52;-7.60;99.90
16247;DHT22;8231;50.866;7.944;2024-01-10T09:39:20;-7.50;99.90
16247;DHT22;8231;50.866;7.944;2024-01-10T09:41:49;-7.40;99.90
16247;DHT22;8231;50.866;7.944;2024-01-10T09:44:20;-7.40;99.90
16247;DHT22;8231;50.866;7.944;2024-01-10T09:46:51;-7.40;99.90
16247;DHT22;8231;50.866;7.944;2024-01-10T09:49:22;-7.30;99.90
16247;DHT22;8231;50.866;7.944;2024-01-10T09:51:53;-7.20;99.90
16247;DHT22;8231;50.866;7.944;2024-01-10T09:54:26;-7.20;99.90
16247;DHT22;8231;50.866;7.944;2024-01-10T09:56:54;-7.10;99.90
16247;DHT22;8231;50.866;7.944;2024-01-10T09:59:22;-7.00;99.90
16247;DHT22;8231;50.866;7.944;2024-01-10T10:01:51;-7.00;99.90
16247;DHT22;8231;50.866;7.944;2024-01-10T10:04:21;-6.90;99.90
16247;DHT22;8231;50.866;7.944;2024-01-10T10:06:58;-6.90;99.90
16247;DHT22;8231;50.866;7.944;2024-01-10T10:09:28;-6.80;99.90
16247;DHT22;8231;50.866;7.944;2024-01-10T10:11:57;-6.80;99.90
16247;DHT22;8231;50.866;7.944;2024-01-10T10:14:28;-6.70;99.90
16247;DHT22;8231;50.866;7.944;2024-01-10T10:17:13;-6.60;99.90
16247;DHT22;8231;50.866;7.944;2024-01-10T10:19:43;-6.50;99.90
16247;DHT22;8231;50.866;7.944;2024-01-10T10:22:12;-6.30;99.90
16247;DHT22;8231;50.866;7.944;2024-01-10T10:24:41;-6.30;99.90
16247;DHT22;8231;50.866;7.944;2024-01-10T10:27:12;-6.20;99.90
16247;DHT22;8231;50.866;7.944;2024-01-10T10:29:40;-6.10;99.90
16247;DHT22;8231;50.866;7.944;2024-01-10T10:32:10;-5.90;99.90
16247;DHT22;8231;50.866;7.944;2024-01-10T10:34:39;-5.80;99.90
16247;DHT22;8231;50.866;7.944;2024-01-10T10:37:08;-5.60;99.90
16247;DHT22;8231;50.866;7.944;2024-01-10T10:39:36;-5.40;99.90
16247;DHT22;8231;50.866;7.944;2024-01-10T10:42:06;-5.30;99.90
16247;DHT22;8231;50.866;7.944;2024-01-10T10:44:36;-5.10;99.90
16247;DHT22;8231;50.866;7.944;2024-01-10T10:47:09;-5.00;99.90
16247;DHT22;8231;50.866;7.944;2024-01-10T10:49:47;-4.80;99.90
16247;DHT22;8231;50.866;7.944;2024-01-10T10:52:17;-4.70;99.90
16247;DHT22;8231;50.866;7.944;2024-01-10T10:54:46;-4.50;99.90
16247;DHT22;8231;50.866;7.944;2024-01-10T10:57:16;-4.30;99.90
16247;DHT22;8231;50.866;7.944;2024-01-10T10:59:46;-4.10;99.90
16247;DHT22;8231;50.866;7.944;2024-01-10T11:02:20;-3.90;99.90
16247;DHT22;8231;50.866;7.944;2024-01-10T11:04:54;-3.70;99.90
16247;DHT22;8231;50.866;7.944;2024-01-10T11:07:25;-3.50;99.90
16247;DHT22;8231;50.866;7.944;2024-01-10T11:09:54;-3.40;99.90
16247;DHT22;8231;50.866;7.944;2024-01-10T11:12:32;-3.30;99.90
16247;DHT22;8231;50.866;7.944;2024-01-10T11:15:26;-3.20;99.90
16247;DHT22;8231;50.866;7.944;2024-01-10T11:18:19;-3.20;99.90
16247;DHT22;8231;50.866;7.944;2024-01-10T11:21:01;-3.10;99.90
16247;DHT22;8231;50.866;7.944;2024-01-10T11:23:39;-3.10;99.90
16247;DHT22;8231;50.866;7.944;2024-01-10T11:26:08;-2.90;99.90
16247;DHT22;8231;50.866;7.944;2024-01-10T11:28:37;-2.80;99.90
16247;DHT22;8231;50.866;7.944;2024-01-10T11:31:07;-2.70;99.90
16247;DHT22;8231;50.866;7.944;2024-01-10T11:33:37;-2.50;99.90
16247;DHT22;8231;50.866;7.944;2024-01-10T11:36:11;-2.40;99.90
16247;DHT22;8231;50.866;7.944;2024-01-10T11:38:49;-2.20;99.90
16247;DHT22;8231;50.866;7.944;2024-01-10T11:41:23;-2.10;99.90
16247;DHT22;8231;50.866;7.944;2024-01-10T11:44:25;-2.00;99.90
16247;DHT22;8231;50.866;7.944;2024-01-10T11:46:55;-2.00;99.90
16247;DHT22;8231;50.866;7.944;2024-01-10T11:49:24;-1.90;99.90
16247;DHT22;8231;50.866;7.944;2024-01-10T11:51:55;-1.90;99.90
16247;DHT22;8231;50.866;7.944;2024-01-10T11:54:38;-1.80;99.90
16247;DHT22;8231;50.866;7.944;2024-01-10T11:57:20;-1.60;99.90
16247;DHT22;8231;50.866;7.944;2024-01-10T11:59:51;-1.40;99.90
16247;DHT22;8231;50.866;7.944;2024-01-10T12:02:20;-1.20;99.90
16247;DHT22;8231;50.866;7.944;2024-01-10T12:04:49;-1.10;99.90
16247;DHT22;8231;50.866;7.944;2024-01-10T12:07:18;-0.90;99.90
16247;DHT22;8231;50.866;7.944;2024-01-10T12:09:48;-0.90;99.90
16247;DHT22;8231;50.866;7.944;2024-01-10T12:12:17;-0.80;99.90
16247;DHT22;8231;50.866;7.944;2024-01-10T12:14:45;-0.80;99.90
16247;DHT22;8231;50.866;7.944;2024-01-10T12:17:14;-0.60;99.90
16247;DHT22;8231;50.866;7.944;2024-01-10T12:19:42;-0.60;99.90
16247;DHT22;8231;50.866;7.944;2024-01-10T12:22:16;-0.40;99.90
16247;DHT22;8231;50.866;7.944;2024-01-10T12:24:45;-0.40;99.90
16247;DHT22;8231;50.866;7.944;2024-01-10T12:27:18;-0.20;99.90
16247;DHT22;8231;50.866;7.944;2024-01-10T12:29:49;-0.20;99.90
16247;DHT22;8231;50.866;7.944;2024-01-10T12:32:20;-0.20;99.90
16247;DHT22;8231;50.866;7.944;2024-01-10T12:34:57;-0.10;99.90
16247;DHT22;8231;50.866;7.944;2024-01-10T12:37:27;-0.10;99.70
16247;DHT22;8231;50.866;7.944;2024-01-10T12:39:56;0.00;99.70
16247;DHT22;8231;50.866;7.944;2024-01-10T12:42:25;0.10;99.20
16247;DHT22;8231;50.866;7.944;2024-01-10T12:44:53;0.30;99.70
16247;DHT22;8231;50.866;7.944;2024-01-10T12:47:22;0.50;99.70
16247;DHT22;8231;50.866;7.944;2024-01-10T12:49:51;0.60;99.20
16247;DHT22;8231;50.866;7.944;2024-01-10T12:52:21;0.50;98.90
16247;DHT22;8231;50.866;7.944;2024-01-10T12:54:51;0.50;98.70
16247;DHT22;8231;50.866;7.944;2024-01-10T12:57:19;0.50;99.20
16247;DHT22;8231;50.866;7.944;2024-01-10T12:59:49;0.50;98.10
16247;DHT22;8231;50.866;7.944;2024-01-10T13:02:17;0.40;98.90
16247;DHT22;8231;50.866;7.944;2024-01-10T13:04:45;0.40;98.40
16247;DHT22;8231;50.866;7.944;2024-01-10T13:07:14;0.30;98.60
16247;DHT22;8231;50.866;7.944;2024-01-10T13:09:42;0.40;98.70
16247;DHT22;8231;50.866;7.944;2024-01-10T13:12:12;0.40;98.50
16247;DHT22;8231;50.866;7.944;2024-01-10T13:14:40;0.40;98.30
16247;DHT22;8231;50.866;7.944;2024-01-10T13:17:10;0.40;98.20
16247;DHT22;8231;50.866;7.944;2024-01-10T13:19:38;0.40;98.70
16247;DHT22;8231;50.866;7.944;2024-01-10T13:22:06;0.50;98.70
16247;DHT22;8231;50.866;7.944;2024-01-10T13:24:35;0.60;98.70
16247;DHT22;8231;50.866;7.944;2024-01-10T13:27:03;0.70;98.40
16247;DHT22;8231;50.866;7.944;2024-01-10T13:29:32;0.70;99.20
16247;DHT22;8231;50.866;7.944;2024-01-10T13:32:01;0.80;98.10
16247;DHT22;8231;50.866;7.944;2024-01-10T13:34:31;0.80;98.00
16247;DHT22;8231;50.866;7.944;2024-01-10T13:36:59;0.70;97.80
16247;DHT22;8231;50.866;7.944;2024-01-10T13:39:29;0.70;98.10
16247;DHT22;8231;50.866;7.944;2024-01-10T13:41:57;0.60;97.80
16247;DHT22;8231;50.866;7.944;2024-01-10T13:44:25;0.50;98.00
16247;DHT22;8231;50.866;7.944;2024-01-10T13:46:54;0.50;98.80
16247;DHT22;8231;50.866;7.944;2024-01-10T13:49:23;0.50;99.00
16247;DHT22;8231;50.866;7.944;2024-01-10T13:51:52;0.50;99.00
16247;DHT22;8231;50.866;7.944;2024-01-10T13:54:21;0.40;98.50
16247;DHT22;8231;50.866;7.944;2024-01-10T13:56:49;0.30;98.90
16247;DHT22;8231;50.866;7.944;2024-01-10T13:59:17;0.30;99.00
16247;DHT22;8231;50.866;7.944;2024-01-10T14:01:46;0.30;99.00
16247;DHT22;8231;50.866;7.944;2024-01-10T14:04:14;0.30;98.70
16247;DHT22;8231;50.866;7.944;2024-01-10T14:06:42;0.30;99.00
16247;DHT22;8231;50.866;7.944;2024-01-10T14:09:12;0.30;99.30
16247;DHT22;8231;50.866;7.944;2024-01-10T14:11:40;0.30;98.90
16247;DHT22;8231;50.866;7.944;2024-01-10T14:14:08;0.20;99.00
16247;DHT22;8231;50.866;7.944;2024-01-10T14:16:36;0.20;99.90
16247;DHT22;8231;50.866;7.944;2024-01-10T14:19:05;0.10;99.40
16247;DHT22;8231;50.866;7.944;2024-01-10T14:21:33;0.10;99.90
16247;DHT22;8231;50.866;7.944;2024-01-10T14:24:01;0.10;99.90
16247;DHT22;8231;50.866;7.944;2024-01-10T14:26:31;0.00;99.90
16247;DHT22;8231;50.866;7.944;2024-01-10T14:28:59;0.00;99.90
16247;DHT22;8231;50.866;7.944;2024-01-10T14:31:27;0.00;99.90
16247;DHT22;8231;50.866;7.944;2024-01-10T14:34:15;-0.10;99.90
16247;DHT22;8231;50.866;7.944;2024-01-10T14:36:44;-0.30;99.90
16247;DHT22;8231;50.866;7.944;2024-01-10T14:39:12;-0.40;99.90
16247;DHT22;8231;50.866;7.944;2024-01-10T14:41:43;-0.30;99.90
16247;DHT22;8231;50.866;7.944;2024-01-10T14:44:11;-0.20;99.90
16247;DHT22;8231;50.866;7.944;2024-01-10T14:46:39;-0.20;99.90
16247;DHT22;8231;50.866;7.944;2024-01-10T14:49:16;-0.20;99.90
16247;DHT22;8231;50.866;7.944;2024-01-10T14:51:46;-0.20;99.90
16247;DHT22;8231;50.866;7.944;2024-01-10T14:54:14;-0.20;99.90
16247;DHT22;8231;50.866;7.944;2024-01-10T14:56:44;-0.30;99.90
16247;DHT22;8231;50.866;7.944;2024-01-10T14:59:12;-0.50;99.90
16247;DHT22;8231;50.866;7.944;2024-01-10T15:01:43;-0.70;99.90
16247;DHT22;8231;50.866;7.944;2024-01-10T15:04:12;-0.90;99.90
16247;DHT22;8231;50.866;7.944;2024-01-10T15:06:44;-1.10;99.90
16247;DHT22;8231;50.866;7.944;2024-01-10T15:09:12;-1.20;99.90
16247;DHT22;8231;50.866;7.944;2024-01-10T15:11:41;-1.30;99.90
16247;DHT22;8231;50.866;7.944;2024-01-10T15:14:11;-1.40;99.90
16247;DHT22;8231;50.866;7.944;2024-01-10T15:16:39;-1.50;99.90
16247;DHT22;8231;50.866;7.944;2024-01-10T15:19:07;-1.60;99.90
16247;DHT22;8231;50.866;7.944;2024-01-10T15:21:35;-1.70;99.90
16247;DHT22;8231;50.866;7.944;2024-01-10T15:24:06;-1.90;99.90
16247;DHT22;8231;50.866;7.944;2024-01-10T15:26:34;-2.00;99.90
16247;DHT22;8231;50.866;7.944;2024-01-10T15:29:02;-2.10;99.90
16247;DHT22;8231;50.866;7.944;2024-01-10T15:31:32;-2.10;99.90
16247;DHT22;8231;50.866;7.944;2024-01-10T15:34:02;-2.20;99.90
16247;DHT22;8231;50.866;7.944;2024-01-10T15:36:30;-2.30;99.90
16247;DHT22;8231;50.866;7.944;2024-01-10T15:38:58;-2.40;99.90
16247;DHT22;8231;50.866;7.944;2024-01-10T15:41:27;-2.50;99.90
16247;DHT22;8231;50.866;7.944;2024-01-10T15:43:55;-2.50;99.90
16247;DHT22;8231;50.866;7.944;2024-01-10T15:46:24;-2.70;99.90
16247;DHT22;8231;50.866;7.944;2024-01-10T15:48:57;-2.80;99.90
16247;DHT22;8231;50.866;7.944;2024-01-10T15:51:31;-2.90;99.90
16247;DHT22;8231;50.866;7.944;2024-01-10T15:54:00;-3.00;99.90
16247;DHT22;8231;50.866;7.944;2024-01-10T15:56:38;-3.10;99.90
16247;DHT22;8231;50.866;7.944;2024-01-10T15:59:08;-3.10;99.90
16247;DHT22;8231;50.866;7.944;2024-01-10T16:01:37;-3.30;99.90